< < Back
Terminal Aerodrome Forecast


Current Version              Previous Versions:   1  2  3  4  5  6  7  8  9  

Terminal Aerodrome Forecast

913
FTUS44 KMRX 231120
TAFTYS
TAF
KTYS 231120Z 2312/2412 36005KT P6SM SKC
     FM231500 03008KT P6SM FEW150
     FM240100 VRB03KT P6SM SKC=



Latest METAR

839
SAUS80 KWBC 240200 CCA
MTRTYS
METAR KTYS 240153Z 01005KT 10SM CLR 15/M02 A2999 RMK AO2 SLP151
T01501017


USA.gov is the U.S. government's official web portal to all federal, state and local government web resources and services.